sensor_id;sensor_type;location;lat;lon;timestamp;pressure;altitude;pressure_sealevel;temperature;humidity
30421;BME280;17218;54.070;10.012;2023-04-09T00:01:31;102635.81;;;7.23;100.00
30421;BME280;17218;54.070;10.012;2023-04-09T00:03:58;102632.25;;;7.19;100.00
30421;BME280;17218;54.070;10.012;2023-04-09T00:06:24;102630.41;;;7.16;100.00
30421;BME280;17218;54.070;10.012;2023-04-09T00:08:51;102634.97;;;7.24;100.00
30421;BME280;17218;54.070;10.012;2023-04-09T00:11:17;102629.13;;;7.28;100.00
30421;BME280;17218;54.070;10.012;2023-04-09T00:13:45;102637.94;;;7.35;100.00
30421;BME280;17218;54.070;10.012;2023-04-09T00:16:11;102633.84;;;7.40;100.00
30421;BME280;17218;54.070;10.012;2023-04-09T00:18:39;102624.31;;;7.37;100.00
30421;BME280;17218;54.070;10.012;2023-04-09T00:21:05;102631.16;;;7.37;100.00
30421;BME280;17218;54.070;10.012;2023-04-09T00:23:33;102626.84;;;7.36;100.00
30421;BME280;17218;54.070;10.012;2023-04-09T00:25:59;102629.47;;;7.37;100.00
30421;BME280;17218;54.070;10.012;2023-04-09T00:28:26;102626.88;;;7.37;100.00
30421;BME280;17218;54.070;10.012;2023-04-09T00:30:52;102621.72;;;7.37;100.00
30421;BME280;17218;54.070;10.012;2023-04-09T00:33:19;102619.16;;;7.37;100.00
30421;BME280;17218;54.070;10.012;2023-04-09T00:35:46;102623.31;;;7.34;100.00
30421;BME280;17218;54.070;10.012;2023-04-09T00:38:13;102626.69;;;7.33;100.00
30421;BME280;17218;54.070;10.012;2023-04-09T00:40:39;102615.53;;;7.32;100.00
30421;BME280;17218;54.070;10.012;2023-04-09T00:43:06;102620.69;;;7.32;100.00
30421;BME280;17218;54.070;10.012;2023-04-09T00:45:33;102613.66;;;7.28;100.00
30421;BME280;17218;54.070;10.012;2023-04-09T00:47:59;102614.31;;;7.22;100.00
30421;BME280;17218;54.070;10.012;2023-04-09T00:50:26;102612.53;;;7.21;100.00
30421;BME280;17218;54.070;10.012;2023-04-09T00:52:54;102610.69;;;7.17;100.00
30421;BME280;17218;54.070;10.012;2023-04-09T00:55:21;102613.38;;;7.20;100.00
30421;BME280;17218;54.070;10.012;2023-04-09T00:57:48;102614.25;;;7.21;100.00
30421;BME280;17218;54.070;10.012;2023-04-09T01:00:15;102600.47;;;7.20;100.00
30421;BME280;17218;54.070;10.012;2023-04-09T01:02:42;102604.34;;;7.09;100.00
30421;BME280;17218;54.070;10.012;2023-04-09T01:05:09;102609.56;;;7.10;100.00
30421;BME280;17218;54.070;10.012;2023-04-09T01:07:44;102613.91;;;7.11;100.00
30421;BME280;17218;54.070;10.012;2023-04-09T01:10:23;102612.28;;;7.13;100.00
30421;BME280;17218;54.070;10.012;2023-04-09T01:13:00;102610.50;;;7.12;100.00
30421;BME280;17218;54.070;10.012;2023-04-09T01:15:32;102615.69;;;7.14;100.00
30421;BME280;17218;54.070;10.012;2023-04-09T01:18:05;102613.22;;;7.15;100.00
30421;BME280;17218;54.070;10.012;2023-04-09T01:20:34;102611.53;;;7.18;100.00
30421;BME280;17218;54.070;10.012;2023-04-09T01:23:16;102612.47;;;7.20;100.00
30421;BME280;17218;54.070;10.012;2023-04-09T01:26:02;102609.94;;;7.21;100.00
30421;BME280;17218;54.070;10.012;2023-04-09T01:28:32;102609.09;;;7.21;100.00
30421;BME280;17218;54.070;10.012;2023-04-09T01:31:03;102608.16;;;7.19;100.00
30421;BME280;17218;54.070;10.012;2023-04-09T01:33:32;102611.72;;;7.22;100.00
30421;BME280;17218;54.070;10.012;2023-04-09T01:36:01;102608.31;;;7.23;100.00
30421;BME280;17218;54.070;10.012;2023-04-09T01:38:30;102609.94;;;7.21;100.00
30421;BME280;17218;54.070;10.012;2023-04-09T01:40:58;102605.72;;;7.23;100.00
30421;BME280;17218;54.070;10.012;2023-04-09T01:43:26;102608.22;;;7.20;100.00
30421;BME280;17218;54.070;10.012;2023-04-09T01:45:54;102604.88;;;7.23;100.00
30421;BME280;17218;54.070;10.012;2023-04-09T01:48:22;102602.94;;;7.17;100.00
30421;BME280;17218;54.070;10.012;2023-04-09T01:50:50;102596.22;;;7.21;100.00
30421;BME280;17218;54.070;10.012;2023-04-09T01:53:16;102596.38;;;7.25;100.00
30421;BME280;17218;54.070;10.012;2023-04-09T01:55:43;102597.84;;;7.19;100.00
30421;BME280;17218;54.070;10.012;2023-04-09T01:58:10;102591.06;;;7.21;100.00
30421;BME280;17218;54.070;10.012;2023-04-09T02:00:38;102598.78;;;7.21;100.00
30421;BME280;17218;54.070;10.012;2023-04-09T02:03:09;102596.31;;;7.24;100.00
30421;BME280;17218;54.070;10.012;2023-04-09T02:05:40;102589.31;;;7.21;100.00
30421;BME280;17218;54.070;10.012;2023-04-09T02:08:11;102591.81;;;7.18;100.00
30421;BME280;17218;54.070;10.012;2023-04-09T02:10:40;102591.66;;;7.13;100.00
30421;BME280;17218;54.070;10.012;2023-04-09T02:13:14;102596.56;;;7.07;100.00
30421;BME280;17218;54.070;10.012;2023-04-09T02:15:42;102595.63;;;7.05;100.00
30421;BME280;17218;54.070;10.012;2023-04-09T02:18:21;102594.00;;;7.07;100.00
30421;BME280;17218;54.070;10.012;2023-04-09T02:20:48;102585.25;;;7.03;100.00
30421;BME280;17218;54.070;10.012;2023-04-09T02:23:15;102584.50;;;7.06;100.00
30421;BME280;17218;54.070;10.012;2023-04-09T02:25:41;102592.41;;;7.11;100.00
30421;BME280;17218;54.070;10.012;2023-04-09T02:28:08;102590.41;;;7.03;100.00
30421;BME280;17218;54.070;10.012;2023-04-09T02:30:34;102584.31;;;7.01;100.00
30421;BME280;17218;54.070;10.012;2023-04-09T02:33:01;102585.91;;;6.98;100.00
30421;BME280;17218;54.070;10.012;2023-04-09T02:35:29;102580.06;;;7.02;100.00
30421;BME280;17218;54.070;10.012;2023-04-09T02:37:55;102575.69;;;7.01;100.00
30421;BME280;17218;54.070;10.012;2023-04-09T02:40:22;102582.88;;;7.08;100.00
30421;BME280;17218;54.070;10.012;2023-04-09T02:42:49;102571.53;;;7.04;100.00
30421;BME280;17218;54.070;10.012;2023-04-09T02:45:15;102580.75;;;6.98;100.00
30421;BME280;17218;54.070;10.012;2023-04-09T02:47:42;102575.44;;;6.93;100.00
30421;BME280;17218;54.070;10.012;2023-04-09T02:50:09;102587.38;;;6.91;100.00
30421;BME280;17218;54.070;10.012;2023-04-09T02:52:37;102575.50;;;6.95;100.00
30421;BME280;17218;54.070;10.012;2023-04-09T02:55:04;102578.81;;;6.92;100.00
30421;BME280;17218;54.070;10.012;2023-04-09T02:57:30;102577.06;;;6.91;100.00
30421;BME280;17218;54.070;10.012;2023-04-09T02:59:57;102568.72;;;6.97;100.00
30421;BME280;17218;54.070;10.012;2023-04-09T03:02:24;102567.13;;;7.00;100.00
30421;BME280;17218;54.070;10.012;2023-04-09T03:04:50;102567.28;;;7.05;100.00
30421;BME280;17218;54.070;10.012;2023-04-09T03:07:17;102567.41;;;7.08;100.00
30421;BME280;17218;54.070;10.012;2023-04-09T03:09:45;102563.16;;;7.10;100.00
30421;BME280;17218;54.070;10.012;2023-04-09T03:12:12;102567.50;;;7.11;100.00
30421;BME280;17218;54.070;10.012;2023-04-09T03:14:38;102568.41;;;7.12;100.00
30421;BME280;17218;54.070;10.012;2023-04-09T03:17:05;102559.53;;;7.05;100.00
30421;BME280;17218;54.070;10.012;2023-04-09T03:19:31;102562.00;;;7.02;100.00
30421;BME280;17218;54.070;10.012;2023-04-09T03:21:58;102567.22;;;7.03;100.00
30421;BME280;17218;54.070;10.012;2023-04-09T03:24:24;102572.56;;;7.08;100.00
30421;BME280;17218;54.070;10.012;2023-04-09T03:26:52;102574.25;;;7.08;100.00
30421;BME280;17218;54.070;10.012;2023-04-09T03:29:18;102560.47;;;7.07;100.00
30421;BME280;17218;54.070;10.012;2023-04-09T03:31:45;102558.84;;;7.09;100.00
30421;BME280;17218;54.070;10.012;2023-04-09T03:34:11;102563.25;;;7.12;100.00
30421;BME280;17218;54.070;10.012;2023-04-09T03:36:38;102558.84;;;7.09;100.00
30421;BME280;17218;54.070;10.012;2023-04-09T03:39:04;102550.22;;;7.09;100.00
30421;BME280;17218;54.070;10.012;2023-04-09T03:41:31;102572.78;;;7.14;100.00
30421;BME280;17218;54.070;10.012;2023-04-09T03:43:58;102565.09;;;7.16;100.00
30421;BME280;17218;54.070;10.012;2023-04-09T03:46:25;102564.38;;;7.20;100.00
30421;BME280;17218;54.070;10.012;2023-04-09T03:48:51;102562.69;;;7.21;100.00
30421;BME280;17218;54.070;10.012;2023-04-09T03:51:18;102560.94;;;7.20;100.00
30421;BME280;17218;54.070;10.012;2023-04-09T03:53:44;102557.50;;;7.19;100.00
30421;BME280;17218;54.070;10.012;2023-04-09T03:56:11;102559.13;;;7.17;100.00
30421;BME280;17218;54.070;10.012;2023-04-09T03:58:40;102559.97;;;7.18;100.00
30421;BME280;17218;54.070;10.012;2023-04-09T04:01:08;102551.41;;;7.17;100.00
30421;BME280;17218;54.070;10.012;2023-04-09T04:03:35;102548.88;;;7.19;100.00
30421;BME280;17218;54.070;10.012;2023-04-09T04:06:02;102551.34;;;7.15;100.00
30421;BME280;17218;54.070;10.012;2023-04-09T04:08:29;102559.88;;;7.14;100.00
30421;BME280;17218;54.070;10.012;2023-04-09T04:10:55;102556.59;;;7.19;100.00
30421;BME280;17218;54.070;10.012;2023-04-09T04:13:21;102554.91;;;7.19;100.00
30421;BME280;17218;54.070;10.012;2023-04-09T04:15:48;102561.06;;;7.23;100.00
30421;BME280;17218;54.070;10.012;2023-04-09T04:18:16;102566.97;;;7.20;100.00
30421;BME280;17218;54.070;10.012;2023-04-09T04:20:42;102565.28;;;7.21;100.00
30421;BME280;17218;54.070;10.012;2023-04-09T04:23:09;102557.41;;;7.18;100.00
30421;BME280;17218;54.070;10.012;2023-04-09T04:25:35;102560.78;;;7.15;100.00
30421;BME280;17218;54.070;10.012;2023-04-09T04:28:01;102566.72;;;7.14;100.00
30421;BME280;17218;54.070;10.012;2023-04-09T04:30:28;102566.91;;;7.19;100.00
30421;BME280;17218;54.070;10.012;2023-04-09T04:32:54;102565.28;;;7.21;100.00
30421;BME280;17218;54.070;10.012;2023-04-09T04:35:22;102567.84;;;7.21;100.00
30421;BME280;17218;54.070;10.012;2023-04-09T04:37:49;102567.66;;;7.16;100.00
30421;BME280;17218;54.070;10.012;2023-04-09T04:40:16;102566.81;;;7.15;100.00
30421;BME280;17218;54.070;10.012;2023-04-09T04:42:43;102558.91;;;7.11;100.00
30421;BME280;17218;54.070;10.012;2023-04-09T04:45:09;102564.06;;;7.11;100.00
30421;BME280;17218;54.070;10.012;2023-04-09T04:47:36;102569.22;;;7.11;100.00
30421;BME280;17218;54.070;10.012;2023-04-09T04:50:03;102570.09;;;7.11;100.00
30421;BME280;17218;54.070;10.012;2023-04-09T04:52:31;102577.94;;;7.14;100.00
30421;BME280;17218;54.070;10.012;2023-04-09T04:54:58;102569.38;;;7.15;100.00
30421;BME280;17218;54.070;10.012;2023-04-09T04:57:24;102572.81;;;7.16;100.00
30421;BME280;17218;54.070;10.012;2023-04-09T04:59:50;102572.88;;;7.18;100.00
30421;BME280;17218;54.070;10.012;2023-04-09T05:02:17;102570.44;;;7.21;100.00
30421;BME280;17218;54.070;10.012;2023-04-09T05:04:43;102574.59;;;7.17;100.00
30421;BME280;17218;54.070;10.012;2023-04-09T05:07:10;102580.44;;;7.13;100.00
30421;BME280;17218;54.070;10.012;2023-04-09T05:09:38;102581.34;;;7.13;100.00
30421;BME280;17218;54.070;10.012;2023-04-09T05:12:07;102578.91;;;7.18;100.00
30421;BME280;17218;54.070;10.012;2023-04-09T05:14:33;102584.19;;;7.21;100.00
30421;BME280;17218;54.070;10.012;2023-04-09T05:17:00;102584.34;;;7.26;100.00
30421;BME280;17218;54.070;10.012;2023-04-09T05:19:27;102580.09;;;7.26;100.00
30421;BME280;17218;54.070;10.012;2023-04-09T05:21:53;102583.75;;;7.33;100.00
30421;BME280;17218;54.070;10.012;2023-04-09T05:24:20;102576.06;;;7.35;100.00
30421;BME280;17218;54.070;10.012;2023-04-09T05:26:47;102589.00;;;7.36;100.00
30421;BME280;17218;54.070;10.012;2023-04-09T05:29:14;102578.56;;;7.32;100.00
30421;BME280;17218;54.070;10.012;2023-04-09T05:31:41;102576.97;;;7.35;100.00
30421;BME280;17218;54.070;10.012;2023-04-09T05:34:08;102584.00;;;7.39;100.00
30421;BME280;17218;54.070;10.012;2023-04-09T05:36:34;102583.06;;;7.37;100.00
30421;BME280;17218;54.070;10.012;2023-04-09T05:39:01;102571.84;;;7.37;100.00
30421;BME280;17218;54.070;10.012;2023-04-09T05:41:27;102579.53;;;7.35;100.00
30421;BME280;17218;54.070;10.012;2023-04-09T05:43:55;102578.84;;;7.39;100.00
30421;BME280;17218;54.070;10.012;2023-04-09T05:46:21;102583.25;;;7.44;100.00
30421;BME280;17218;54.070;10.012;2023-04-09T05:48:48;102580.72;;;7.45;100.00
30421;BME280;17218;54.070;10.012;2023-04-09T05:51:14;102572.19;;;7.46;100.00
30421;BME280;17218;54.070;10.012;2023-04-09T05:53:41;102582.31;;;7.42;100.00
30421;BME280;17218;54.070;10.012;2023-04-09T05:56:12;102576.06;;;7.35;100.00
30421;BME280;17218;54.070;10.012;2023-04-09T05:58:39;102584.13;;;7.44;100.00
30421;BME280;17218;54.070;10.012;2023-04-09T06:01:07;102575.66;;;7.47;100.00
30421;BME280;17218;54.070;10.012;2023-04-09T06:03:34;102581.22;;;7.59;100.00
30421;BME280;17218;54.070;10.012;2023-04-09T06:06:00;102584.88;;;7.66;100.00
30421;BME280;17218;54.070;10.012;2023-04-09T06:08:27;102583.94;;;7.64;100.00
30421;BME280;17218;54.070;10.012;2023-04-09T06:10:53;102579.53;;;7.60;100.00
30421;BME280;17218;54.070;10.012;2023-04-09T06:13:20;102575.00;;;7.53;100.00
30421;BME280;17218;54.070;10.012;2023-04-09T06:15:46;102576.16;;;7.62;100.00
30421;BME280;17218;54.070;10.012;2023-04-09T06:18:14;102586.03;;;7.74;100.00
30421;BME280;17218;54.070;10.012;2023-04-09T06:20:41;102581.88;;;7.78;100.00
30421;BME280;17218;54.070;10.012;2023-04-09T06:23:07;102582.41;;;7.69;100.00
30421;BME280;17218;54.070;10.012;2023-04-09T06:25:34;102574.25;;;7.57;100.00
30421;BME280;17218;54.070;10.012;2023-04-09T06:28:00;102591.81;;;7.67;100.00
30421;BME280;17218;54.070;10.012;2023-04-09T06:30:27;102583.56;;;7.78;100.00
30421;BME280;17218;54.070;10.012;2023-04-09T06:32:56;102593.31;;;7.86;100.00
30421;BME280;17218;54.070;10.012;2023-04-09T06:35:24;102592.75;;;7.95;100.00
30421;BME280;17218;54.070;10.012;2023-04-09T06:37:50;102601.28;;;7.93;100.00
30421;BME280;17218;54.070;10.012;2023-04-09T06:40:17;102597.91;;;7.95;100.00
30421;BME280;17218;54.070;10.012;2023-04-09T06:42:44;102608.66;;;8.08;100.00
30421;BME280;17218;54.070;10.012;2023-04-09T06:45:11;102596.72;;;8.11;100.00
30421;BME280;17218;54.070;10.012;2023-04-09T06:47:37;102605.22;;;8.09;100.00
30421;BME280;17218;54.070;10.012;2023-04-09T06:50:04;102596.59;;;8.08;100.00
30421;BME280;17218;54.070;10.012;2023-04-09T06:52:32;102599.72;;;7.98;100.00
30421;BME280;17218;54.070;10.012;2023-04-09T06:54:59;102599.44;;;7.90;100.00
30421;BME280;17218;54.070;10.012;2023-04-09T06:57:25;102593.00;;;7.77;100.00
30421;BME280;17218;54.070;10.012;2023-04-09T06:59:52;102608.38;;;7.25;100.00
30421;BME280;17218;54.070;10.012;2023-04-09T07:02:18;102606.06;;;7.08;100.00
30421;BME280;17218;54.070;10.012;2023-04-09T07:04:45;102606.81;;;7.28;100.00
30421;BME280;17218;54.070;10.012;2023-04-09T07:07:12;102607.78;;;7.57;100.00
30421;BME280;17218;54.070;10.012;2023-04-09T07:09:41;102608.59;;;7.80;100.00
30421;BME280;17218;54.070;10.012;2023-04-09T07:12:07;102598.38;;;7.83;100.00
30421;BME280;17218;54.070;10.012;2023-04-09T07:14:33;102595.09;;;7.87;100.00
30421;BME280;17218;54.070;10.012;2023-04-09T07:17:00;102597.19;;;7.99;100.00
30421;BME280;17218;54.070;10.012;2023-04-09T07:19:27;102604.47;;;7.85;100.00
30421;BME280;17218;54.070;10.012;2023-04-09T07:21:53;102608.47;;;7.77;100.00
30421;BME280;17218;54.070;10.012;2023-04-09T07:24:20;102610.50;;;7.86;100.00
30421;BME280;17218;54.070;10.012;2023-04-09T07:26:48;102609.69;;;7.87;100.00
30421;BME280;17218;54.070;10.012;2023-04-09T07:29:15;102612.75;;;8.03;100.00
30421;BME280;17218;54.070;10.012;2023-04-09T07:31:41;102614.81;;;8.11;100.00
30421;BME280;17218;54.070;10.012;2023-04-09T07:34:08;102618.75;;;8.02;100.00
30421;BME280;17218;54.070;10.012;2023-04-09T07:36:35;102615.72;;;7.87;100.00
30421;BME280;17218;54.070;10.012;2023-04-09T07:39:02;102615.59;;;7.84;100.00
30421;BME280;17218;54.070;10.012;2023-04-09T07:41:28;102617.88;;;7.26;100.00
30421;BME280;17218;54.070;10.012;2023-04-09T07:43:57;102617.88;;;7.26;100.00
30421;BME280;17218;54.070;10.012;2023-04-09T07:46:23;102620.06;;;7.64;100.00
30421;BME280;17218;54.070;10.012;2023-04-09T07:48:50;102625.72;;;7.78;100.00
30421;BME280;17218;54.070;10.012;2023-04-09T07:51:16;102623.63;;;7.68;100.00
30421;BME280;17218;54.070;10.012;2023-04-09T07:53:42;102621.19;;;7.71;100.00
30421;BME280;17218;54.070;10.012;2023-04-09T07:56:09;102628.94;;;7.97;100.00
30421;BME280;17218;54.070;10.012;2023-04-09T07:58:36;102625.25;;;8.16;100.00
30421;BME280;17218;54.070;10.012;2023-04-09T08:01:04;102621.69;;;8.39;100.00
30421;BME280;17218;54.070;10.012;2023-04-09T08:03:31;102611.97;;;8.57;100.00
30421;BME280;17218;54.070;10.012;2023-04-09T08:05:57;102613.19;;;8.69;100.00
30421;BME280;17218;54.070;10.012;2023-04-09T08:08:23;102617.28;;;8.62;100.00
30421;BME280;17218;54.070;10.012;2023-04-09T08:10:50;102605.31;;;8.66;100.00
30421;BME280;17218;54.070;10.012;2023-04-09T08:13:16;102601.22;;;9.02;100.00
30421;BME280;17218;54.070;10.012;2023-04-09T08:15:43;102599.56;;;9.35;100.00
30421;BME280;17218;54.070;10.012;2023-04-09T08:18:11;102594.63;;;9.44;100.00
30421;BME280;17218;54.070;10.012;2023-04-09T08:20:37;102603.84;;;9.34;100.00
30421;BME280;17218;54.070;10.012;2023-04-09T08:23:09;102600.84;;;9.51;100.00
30421;BME280;17218;54.070;10.012;2023-04-09T08:25:35;102600.28;;;9.61;100.00
30421;BME280;17218;54.070;10.012;2023-04-09T08:28:02;102608.56;;;9.82;100.00
30421;BME280;17218;54.070;10.012;2023-04-09T08:30:28;102613.75;;;9.82;100.00
30421;BME280;17218;54.070;10.012;2023-04-09T08:32:55;102615.41;;;9.80;100.00
30421;BME280;17218;54.070;10.012;2023-04-09T08:35:23;102612.94;;;9.84;100.00
30421;BME280;17218;54.070;10.012;2023-04-09T08:37:49;102597.38;;;9.83;100.00
30421;BME280;17218;54.070;10.012;2023-04-09T08:40:16;102605.78;;;9.74;100.00
30421;BME280;17218;54.070;10.012;2023-04-09T08:42:44;102609.63;;;9.90;100.00
30421;BME280;17218;54.070;10.012;2023-04-09T08:45:11;102605.44;;;9.95;100.00
30421;BME280;17218;54.070;10.012;2023-04-09T08:47:39;102596.69;;;9.90;100.00
30421;BME280;17218;54.070;10.012;2023-04-09T08:50:07;102598.44;;;9.91;100.00
30421;BME280;17218;54.070;10.012;2023-04-09T08:52:35;102595.03;;;9.94;100.00
30421;BME280;17218;54.070;10.012;2023-04-09T08:55:02;102596.28;;;10.10;100.00
30421;BME280;17218;54.070;10.012;2023-04-09T08:57:29;102600.19;;;10.28;100.00
30421;BME280;17218;54.070;10.012;2023-04-09T08:59:55;102593.63;;;10.42;100.00
30421;BME280;17218;54.070;10.012;2023-04-09T09:02:23;102597.03;;;10.41;100.00
30421;BME280;17218;54.070;10.012;2023-04-09T09:04:49;102590.56;;;10.59;100.00
30421;BME280;17218;54.070;10.012;2023-04-09T09:07:17;102589.19;;;10.75;100.00
30421;BME280;17218;54.070;10.012;2023-04-09T09:09:53;102587.88;;;10.94;100.00
30421;BME280;17218;54.070;10.012;2023-04-09T09:12:33;102587.69;;;10.85;100.00
30421;BME280;17218;54.070;10.012;2023-04-09T09:15:00;102585.13;;;10.88;100.00
30421;BME280;17218;54.070;10.012;2023-04-09T09:17:27;102587.16;;;11.02;100.00
30421;BME280;17218;54.070;10.012;2023-04-09T09:19:54;102575.53;;;11.27;100.00
30421;BME280;17218;54.070;10.012;2023-04-09T09:22:20;102575.91;;;11.46;100.00
30421;BME280;17218;54.070;10.012;2023-04-09T09:24:47;102575.09;;;11.50;100.00
30421;BME280;17218;54.070;10.012;2023-04-09T09:30:09;102582.41;;;11.25;100.00
30421;BME280;17218;54.070;10.012;2023-04-09T09:32:46;102591.13;;;11.29;100.00
30421;BME280;17218;54.070;10.012;2023-04-09T09:35:13;102586.31;;;11.03;100.00
30421;BME280;17218;54.070;10.012;2023-04-09T09:37:39;102584.69;;;10.66;100.00
30421;BME280;17218;54.070;10.012;2023-04-09T09:40:07;102582.44;;;10.45;100.00
30421;BME280;17218;54.070;10.012;2023-04-09T09:42:34;102583.44;;;10.48;100.00
30421;BME280;17218;54.070;10.012;2023-04-09T09:45:03;102582.09;;;10.66;100.00
30421;BME280;17218;54.070;10.012;2023-04-09T09:47:44;102583.28;;;10.82;100.00
30421;BME280;17218;54.070;10.012;2023-04-09T09:50:12;102586.06;;;10.92;100.00
30421;BME280;17218;54.070;10.012;2023-04-09T09:52:39;102582.69;;;10.94;100.00
30421;BME280;17218;54.070;10.012;2023-04-09T09:55:08;102580.28;;;11.04;100.00
30421;BME280;17218;54.070;10.012;2023-04-09T09:57:41;102588.31;;;11.16;100.00
30421;BME280;17218;54.070;10.012;2023-04-09T10:00:11;102579.88;;;11.28;100.00
30421;BME280;17218;54.070;10.012;2023-04-09T10:02:42;102577.56;;;11.42;100.00
30421;BME280;17218;54.070;10.012;2023-04-09T10:05:12;102582.94;;;11.52;100.00
30421;BME280;17218;54.070;10.012;2023-04-09T10:07:40;102584.72;;;11.56;100.00
30421;BME280;17218;54.070;10.012;2023-04-09T10:10:08;102584.28;;;11.80;100.00
30421;BME280;17218;54.070;10.012;2023-04-09T10:12:34;102579.34;;;11.96;100.00
30421;BME280;17218;54.070;10.012;2023-04-09T10:15:01;102584.75;;;12.09;100.00
30421;BME280;17218;54.070;10.012;2023-04-09T10:17:30;102581.25;;;12.07;100.00
30421;BME280;17218;54.070;10.012;2023-04-09T10:20:02;102580.94;;;11.88;100.00
30421;BME280;17218;54.070;10.012;2023-04-09T10:22:33;102575.56;;;11.77;100.00
30421;BME280;17218;54.070;10.012;2023-04-09T10:25:01;102565.91;;;11.68;100.00
30421;BME280;17218;54.070;10.012;2023-04-09T10:27:28;102565.84;;;11.17;100.00
30421;BME280;17218;54.070;10.012;2023-04-09T10:29:55;102570.97;;;11.15;100.00
30421;BME280;17218;54.070;10.012;2023-04-09T10:32:22;102560.56;;;11.14;100.00
30421;BME280;17218;54.070;10.012;2023-04-09T10:34:51;102550.91;;;11.51;100.00
30421;BME280;17218;54.070;10.012;2023-04-09T10:37:22;102559.19;;;11.79;100.00
30421;BME280;17218;54.070;10.012;2023-04-09T10:39:51;102566.09;;;11.80;100.00
30421;BME280;17218;54.070;10.012;2023-04-09T10:42:19;102557.94;;;11.59;100.00
30421;BME280;17218;54.070;10.012;2023-04-09T10:45:03;102554.44;;;11.55;100.00
30421;BME280;17218;54.070;10.012;2023-04-09T10:47:32;102552.13;;;11.72;100.00
30421;BME280;17218;54.070;10.012;2023-04-09T10:50:13;102558.00;;;11.63;100.00
30421;BME280;17218;54.070;10.012;2023-04-09T10:52:40;102547.81;;;11.74;100.00
30421;BME280;17218;54.070;10.012;2023-04-09T10:55:28;102555.66;;;11.76;100.00
30421;BME280;17218;54.070;10.012;2023-04-09T10:57:55;102548.03;;;11.85;100.00
30421;BME280;17218;54.070;10.012;2023-04-09T11:00:22;102543.16;;;12.07;100.00
30421;BME280;17218;54.070;10.012;2023-04-09T11:03:23;102548.63;;;11.68;100.00
30421;BME280;17218;54.070;10.012;2023-04-09T11:05:53;102545.09;;;11.66;100.00
30421;BME280;17218;54.070;10.012;2023-04-09T11:08:21;102538.41;;;11.79;100.00
30421;BME280;17218;54.070;10.012;2023-04-09T11:10:48;102531.53;;;11.81;100.00
30421;BME280;17218;54.070;10.012;2023-04-09T11:13:17;102538.19;;;12.21;100.00
30421;BME280;17218;54.070;10.012;2023-04-09T11:15:44;102527.13;;;12.35;100.00
30421;BME280;17218;54.070;10.012;2023-04-09T11:18:14;102520.44;;;12.54;100.00
30421;BME280;17218;54.070;10.012;2023-04-09T11:20:40;102511.50;;;13.02;100.00
30421;BME280;17218;54.070;10.012;2023-04-09T11:23:07;102526.00;;;12.84;100.00
30421;BME280;17218;54.070;10.012;2023-04-09T11:25:34;102530.97;;;13.43;100.00
30421;BME280;17218;54.070;10.012;2023-04-09T11:28:03;102515.97;;;14.18;100.00
30421;BME280;17218;54.070;10.012;2023-04-09T11:30:30;102515.28;;;14.58;100.00
30421;BME280;17218;54.070;10.012;2023-04-09T11:32:58;102510.25;;;15.07;100.00
30421;BME280;17218;54.070;10.012;2023-04-09T11:35:25;102505.06;;;15.72;100.00
30421;BME280;17218;54.070;10.012;2023-04-09T11:37:51;102510.31;;;15.47;100.00
30421;BME280;17218;54.070;10.012;2023-04-09T11:40:19;102503.31;;;15.57;100.00
30421;BME280;17218;54.070;10.012;2023-04-09T11:42:48;102501.56;;;15.92;100.00
30421;BME280;17218;54.070;10.012;2023-04-09T11:45:16;102505.94;;;16.04;100.00
30421;BME280;17218;54.070;10.012;2023-04-09T11:47:44;102502.44;;;15.93;100.00
30421;BME280;17218;54.070;10.012;2023-04-09T11:50:12;102505.06;;;16.02;100.00
30421;BME280;17218;54.070;10.012;2023-04-09T11:52:39;102502.44;;;15.33;100.00
30421;BME280;17218;54.070;10.012;2023-04-09T11:55:07;102512.63;;;14.50;100.00
30421;BME280;17218;54.070;10.012;2023-04-09T11:57:39;102512.81;;;14.88;100.00
30421;BME280;17218;54.070;10.012;2023-04-09T12:00:08;102497.22;;;15.08;100.00
30421;BME280;17218;54.070;10.012;2023-04-09T12:02:38;102501.56;;;15.08;100.00
30421;BME280;17218;54.070;10.012;2023-04-09T12:05:08;102503.34;;;15.32;100.00
30421;BME280;17218;54.070;10.012;2023-04-09T12:07:34;102501.59;;;15.53;100.00
30421;BME280;17218;54.070;10.012;2023-04-09T12:10:03;102499.78;;;14.88;100.00
30421;BME280;17218;54.070;10.012;2023-04-09T12:12:30;102500.38;;;14.32;100.00
30421;BME280;17218;54.070;10.012;2023-04-09T12:14:56;102488.22;;;14.34;100.00
30421;BME280;17218;54.070;10.012;2023-04-09T12:17:23;102490.84;;;14.33;100.00
30421;BME280;17218;54.070;10.012;2023-04-09T12:19:51;102490.13;;;14.70;100.00
30421;BME280;17218;54.070;10.012;2023-04-09T12:22:17;102489.41;;;15.50;100.00
30421;BME280;17218;54.070;10.012;2023-04-09T12:24:45;102491.13;;;15.39;100.00
30421;BME280;17218;54.070;10.012;2023-04-09T12:27:11;102490.28;;;15.54;100.00
30421;BME280;17218;54.070;10.012;2023-04-09T12:29:38;102485.88;;;16.11;100.00
30421;BME280;17218;54.070;10.012;2023-04-09T12:32:05;102477.06;;;16.39;100.00
30421;BME280;17218;54.070;10.012;2023-04-09T12:34:31;102472.75;;;16.28;100.00
30421;BME280;17218;54.070;10.012;2023-04-09T12:36:59;102477.19;;;15.93;100.00
30421;BME280;17218;54.070;10.012;2023-04-09T12:39:26;102462.28;;;16.31;100.00
30421;BME280;17218;54.070;10.012;2023-04-09T12:41:52;102472.81;;;16.00;100.00
30421;BME280;17218;54.070;10.012;2023-04-09T12:44:19;102472.00;;;15.65;100.00